Time;durP1;ratioP1;P1;durP2;ratioP2;P2;SDS_P1;SDS_P2;PMS_P1;PMS_P2;Temp;Humidity;BMP_temperature;BMP_pressure;BME280_temperature;BME280_humidity;BME280_pressure;Samples;Min_cycle;Max_cycle;Signal;HPM_P1;HPM_P2
2023/09/27 01:36:03;;;;;;;13.17;9.77;;;;;;;7.96;100.00;96290.34;7392178;19;20444;-94
2023/09/27 01:56:58;;;;;;;22.03;11.60;;;;;;;7.35;100.00;96215.88;7416336;19;20377;-94
2023/09/27 02:00:18;;;;;;;;;;;;;;;;;;;;;
2023/09/27 02:17:46;;;;;;;18.03;12.73;;;;;;;7.53;100.00;96256.88;7411830;19;20348;-93
2023/09/27 02:20:52;;;;;;;23.23;11.63;;;;;;;8.93;100.00;96477.88;7412195;19;20405;-93
2023/09/27 02:23:35;;;;;;;19.77;13.23;;;;;;;8.37;100.00;96405.03;7406531;19;20392;-93
2023/09/27 02:26:25;;;;;;;16.47;11.27;;;;;;;9.21;100.00;96498.66;7406288;19;20386;-94
2023/09/27 02:29:15;;;;;;;19.07;10.37;;;;;;;7.66;100.00;96265.72;7410915;19;20396;-94
2023/09/27 02:31:57;;;;;;;21.97;12.03;;;;;;;9.25;100.00;96504.88;7404363;19;20416;-94
2023/09/27 02:34:54;;;;;;;13.40;10.87;;;;;;;8.14;100.00;96339.28;7408826;19;20380;-94
2023/09/27 02:38:00;;;;;;;11.87;10.30;;;;;;;8.55;100.00;96388.16;7408870;19;20433;-94
2023/09/27 02:41:02;;;;;;;17.23;12.80;;;;;;;9.11;100.00;96482.06;7408847;19;21067;-95
2023/09/27 02:44:15;;;;;;;17.30;11.70;;;;;;;9.11;100.00;96479.44;7410302;19;20813;-93
2023/09/27 02:47:00;;;;;;;15.73;11.97;;;;;;;9.09;100.00;96480.84;7413795;19;20464;-94
2023/09/27 02:53:37;;;;;;;19.50;10.27;;;;;;;8.77;100.00;96474.94;7411340;19;20364;-94
2023/09/27 08:20:46;;;;;;;20.63;16.20;;;;;;;10.40;100.00;96458.13;7395479;19;20432;-93
2023/09/27 08:27:11;;;;;;;;;;;;;;;;;;;;;
2023/09/27 08:33:49;;;;;;;17.80;15.87;;;;;;;11.99;100.00;96590.06;7408320;19;20352;-93
2023/09/27 08:40:24;;;;;;;22.40;15.33;;;;;;;10.65;100.00;96420.94;7407283;19;20377;-93
2023/09/27 08:43:05;;;;;;;19.00;16.63;;;;;;;11.68;100.00;96595.78;7409368;19;20392;-93
2023/09/27 08:46:33;;;;;;;17.97;15.70;;;;;;;12.13;100.00;96587.88;7407976;19;20379;-93
2023/09/27 08:52:53;;;;;;;21.90;19.00;;;;;;;10.70;100.00;96361.03;7409998;19;20360;-93
2023/09/27 08:55:40;;;;;;;23.67;21.10;;;;;;;11.41;100.00;96461.34;7409290;19;20376;-93
2023/09/27 08:58:40;;;;;;;25.10;21.73;;;;;;;11.79;100.00;96544.00;7405759;19;20384;-93
2023/09/27 09:01:28;;;;;;;25.47;21.33;;;;;;;12.04;100.00;96584.56;7407466;19;20409;-93
2023/09/27 09:07:02;;;;;;;25.60;20.50;;;;;;;11.36;100.00;96396.16;7410216;19;20383;-93
2023/09/27 09:09:50;;;;;;;24.33;21.73;;;;;;;12.03;100.00;96545.91;7413453;19;20897;-93
2023/09/27 09:12:47;;;;;;;35.63;22.10;;;;;;;12.29;100.00;96542.19;7412572;19;20381;-93
2023/09/27 09:15:48;;;;;;;33.07;24.20;;;;;;;12.28;100.00;96506.91;7410271;19;20379;-93
2023/09/27 09:19:38;;;;;;;27.70;22.50;;;;;;;11.35;100.00;96330.28;7408524;19;20376;-93
2023/09/27 09:22:30;;;;;;;27.97;22.90;;;;;;;13.02;100.00;96548.16;7410463;19;20380;-94
2023/09/27 09:25:56;;;;;;;27.60;22.57;;;;;;;13.22;100.00;96566.91;7407690;19;20389;-94
2023/09/27 09:29:18;;;;;;;22.97;19.53;;;;;;;13.76;100.00;96569.16;7409219;19;20431;-94
2023/09/27 09:50:20;;;;;;;19.37;16.20;;;;;;;15.64;100.00;96576.09;7406650;19;20397;-93
2023/09/27 09:53:17;;;;;;;19.53;17.17;;;;;;;15.42;100.00;96579.44;7407255;19;20459;-94
2023/09/27 09:56:34;;;;;;;18.07;16.30;;;;;;;15.46;100.00;96579.50;7405036;19;21073;-94
2023/09/27 09:59:33;;;;;;;21.83;19.53;;;;;;;15.31;100.00;96490.53;7410664;19;20405;-94
2023/09/27 10:02:35;;;;;;;17.53;15.73;;;;;;;15.05;100.00;96430.69;7406993;19;20412;-94
2023/09/27 10:05:24;;;;;;;23.13;17.20;;;;;;;16.14;100.00;96573.53;7409898;19;20391;-94
2023/09/27 13:39:37;;;;;;;8.70;7.97;;;;;;;23.88;96.16;96385.53;7422965;19;20393;-95
2023/09/27 13:42:28;;;;;;;9.70;7.60;;;;;;;24.08;97.89;96394.47;7421096;19;20365;-94
2023/09/27 13:45:13;;;;;;;12.40;7.13;;;;;;;23.69;95.76;96279.03;7417131;19;20376;-94
2023/09/27 13:48:01;;;;;;;8.43;7.63;;;;;;;24.08;97.39;96391.78;7417383;19;20380;-95
2023/09/27 13:50:41;;;;;;;7.80;6.90;;;;;;;23.82;93.13;96190.81;7413528;19;20420;-94
2023/09/27 13:53:28;;;;;;;9.03;6.47;;;;;;;24.55;88.71;96242.97;7416378;19;20368;-94
2023/09/27 15:12:39;;;;;;;11.17;7.87;;;;;;;25.12;88.89;96333.75;7364420;19;20443;-94
2023/09/27 19:57:56;;;;;;;14.97;13.47;;;;;;;14.11;100.00;96211.06;7362182;19;20464;-95
2023/09/27 20:00:36;;;;;;;17.00;15.30;;;;;;;12.52;100.00;95977.59;7423218;19;20954;-95
2023/09/27 20:03:21;;;;;;;17.77;16.07;;;;;;;12.27;100.00;95975.16;7429703;19;20400;-95
2023/09/27 20:06:06;;;;;;;18.83;14.93;;;;;;;12.51;100.00;96064.34;7427593;19;20389;-94
2023/09/27 20:08:57;;;;;;;15.37;13.93;;;;;;;12.82;100.00;96137.81;7424150;19;20400;-95
2023/09/27 20:11:44;;;;;;;20.37;15.60;;;;;;;12.32;100.00;96059.75;7421123;19;20396;-95
2023/09/27 20:14:54;;;;;;;18.93;15.27;;;;;;;12.37;100.00;96061.38;7424197;19;20716;-95
2023/09/27 20:17:41;;;;;;;15.60;14.17;;;;;;;13.43;100.00;96192.25;7420330;19;20377;-95
2023/09/27 20:20:25;;;;;;;17.60;15.83;;;;;;;12.65;100.00;96066.53;7422478;19;20408;-95
2023/09/27 20:23:23;;;;;;;18.13;15.37;;;;;;;13.55;100.00;96208.06;7424258;19;20375;-95
2023/09/27 20:26:06;;;;;;;17.47;14.37;;;;;;;12.87;100.00;96084.47;7421987;19;20373;-95
2023/09/27 20:28:52;;;;;;;17.53;15.93;;;;;;;12.66;100.00;96063.53;7424166;19;20381;-96
2023/09/27 20:31:33;;;;;;;18.57;16.37;;;;;;;12.61;100.00;96060.41;7425849;19;20517;-95
2023/09/27 20:34:20;;;;;;;18.60;14.10;;;;;;;12.68;100.00;96065.84;7423802;19;20396;-94
2023/09/27 20:37:27;;;;;;;19.50;15.43;;;;;;;13.41;100.00;96205.88;7425861;19;20396;-95
2023/09/27 20:40:22;;;;;;;14.67;12.57;;;;;;;11.77;100.00;95966.06;7426008;19;20393;-95
2023/09/27 20:43:06;;;;;;;15.93;14.23;;;;;;;13.48;100.00;96197.28;7428925;19;20393;-95
2023/09/27 20:46:35;;;;;;;14.97;13.30;;;;;;;12.34;100.00;96040.84;7425086;19;20388;-95
2023/09/27 20:49:16;;;;;;;13.77;12.57;;;;;;;13.28;100.00;96223.81;7422901;19;20373;-95
2023/09/27 20:52:04;;;;;;;20.67;13.17;;;;;;;13.34;100.00;96205.72;7423606;19;20517;-95
2023/09/27 20:54:45;;;;;;;16.83;15.10;;;;;;;13.27;100.00;96209.00;7420959;19;20402;-94
2023/09/27 20:57:31;;;;;;;14.37;13.00;;;;;;;12.87;100.00;96201.22;7421183;19;20385;-94
2023/09/27 21:00:16;;;;;;;14.10;12.70;;;;;;;12.47;100.00;96211.22;7421638;19;20423;-95
2023/09/27 21:03:18;;;;;;;21.77;14.40;;;;;;;11.62;100.00;96069.31;7417876;19;20408;-94
2023/09/27 21:06:02;;;;;;;14.23;12.73;;;;;;;10.94;100.00;95977.53;7419048;19;20385;-94
2023/09/27 21:09:16;;;;;;;22.90;12.60;;;;;;;12.24;100.00;96201.19;7422635;19;20414;-94
2023/09/27 21:12:18;;;;;;;19.17;12.77;;;;;;;10.70;100.00;95993.50;7420321;19;20451;-94
2023/09/27 21:18:43;;;;;;;12.10;10.90;;;;;;;11.56;100.00;96082.03;7424328;19;20396;-94
2023/09/27 23:14:21;;;;;;;15.03;10.33;;;;;;;10.21;100.00;96144.13;7380144;19;20448;-94
2023/09/27 23:17:58;;;;;;;11.53;10.50;;;;;;;9.27;100.00;95998.81;7419269;19;20361;-94
2023/09/27 23:24:52;;;;;;;;;;;;;;;;;;;;;
2023/09/27 23:27:20;;;;;;;11.53;10.33;;;;;;;8.75;100.00;95967.63;7421887;19;20389;-96
2023/09/27 23:30:02;;;;;;;15.77;11.20;;;;;;;10.15;100.00;96170.00;7422509;19;20425;-95
2023/09/27 23:32:46;;;;;;;12.47;11.20;;;;;;;8.72;100.00;95984.88;7425375;19;20406;-93
2023/09/27 23:35:32;;;;;;;18.87;11.67;;;;;;;9.62;100.00;96104.81;7423627;19;20388;-95
2023/09/27 23:41:15;;;;;;;13.20;10.40;;;;;;;9.67;100.00;96088.75;7413820;19;20416;-94
2023/09/27 23:44:08;;;;;;;11.77;10.60;;;;;;;8.87;100.00;95986.91;7419759;19;20383;-94
2023/09/27 23:46:53;;;;;;;19.30;11.67;;;;;;;10.18;100.00;96177.25;7416870;19;20388;-95
2023/09/27 23:49:42;;;;;;;12.57;11.27;;;;;;;10.13;100.00;96187.25;7420475;19;20397;-95
2023/09/27 23:52:47;;;;;;;12.03;10.80;;;;;;;8.75;100.00;96015.84;7416589;19;20408;-94
2023/09/27 23:55:31;;;;;;;13.17;10.50;;;;;;;9.62;100.00;96195.31;7414798;19;20369;-94
2023/09/27 23:58:41;;;;;;;11.67;10.47;;;;;;;9.40;100.00;96177.94;7414108;19;20380;-95
